createdAt,value
2023-02-22T00:01:07.421Z,9.90
2023-02-22T00:03:34.966Z,10.00
2023-02-22T00:06:04.842Z,9.80
2023-02-22T00:08:34.415Z,9.80
2023-02-22T00:11:09.526Z,9.80
2023-02-22T00:13:37.934Z,9.80
2023-02-22T00:16:06.331Z,9.70
2023-02-22T00:18:33.313Z,9.70
2023-02-22T00:21:01.302Z,9.70
2023-02-22T00:23:30.599Z,9.60
2023-02-22T00:25:58.780Z,9.70
2023-02-22T00:28:26.275Z,9.60
2023-02-22T00:30:54.881Z,9.60
2023-02-22T00:33:23.311Z,9.60
2023-02-22T00:35:50.966Z,9.60
2023-02-22T00:38:19.585Z,9.50
2023-02-22T00:40:46.910Z,9.60
2023-02-22T00:43:14.383Z,9.50
2023-02-22T00:45:42.248Z,9.50
2023-02-22T00:48:09.978Z,9.50
2023-02-22T00:50:37.969Z,9.50
2023-02-22T00:53:05.805Z,9.30
2023-02-22T00:55:35.124Z,9.20
2023-02-22T00:58:02.370Z,9.20
2023-02-22T01:00:32.338Z,9.20
2023-02-22T01:02:59.643Z,9.30
2023-02-22T01:05:29.254Z,9.30
2023-02-22T01:07:58.583Z,9.30
2023-02-22T01:10:28.104Z,9.20
2023-02-22T01:12:56.617Z,9.10
2023-02-22T01:15:27.333Z,9.10
2023-02-22T01:17:54.906Z,9.10
2023-02-22T01:20:23.048Z,9.20
2023-02-22T01:22:53.803Z,9.20
2023-02-22T01:25:24.668Z,9.00
2023-02-22T01:27:52.602Z,9.00
2023-02-22T01:30:25.973Z,8.90
2023-02-22T01:32:53.525Z,8.80
2023-02-22T01:35:24.253Z,8.80
2023-02-22T01:37:51.569Z,8.80
2023-02-22T01:40:25.652Z,8.80
2023-02-22T01:42:55.546Z,8.80
2023-02-22T01:45:32.829Z,8.80
2023-02-22T01:48:19.957Z,8.40
2023-02-22T01:51:09.173Z,8.30
2023-02-22T01:53:55.218Z,8.20
2023-02-22T01:56:24.606Z,8.20
2023-02-22T01:58:57.234Z,8.10
2023-02-22T02:01:28.228Z,8.10
2023-02-22T02:04:00.332Z,8.10
2023-02-22T02:06:31.213Z,8.20
2023-02-22T02:09:10.787Z,8.20
2023-02-22T02:11:40.415Z,8.10
2023-02-22T02:14:09.294Z,8.10
2023-02-22T02:16:44.644Z,8.10
2023-02-22T02:19:24.773Z,8.00
2023-02-22T02:22:06.249Z,7.90
2023-02-22T02:24:39.698Z,7.80
2023-02-22T02:27:19.255Z,7.80
2023-02-22T02:30:03.947Z,7.80
2023-02-22T02:32:39.528Z,7.60
2023-02-22T02:35:14.957Z,7.50
2023-02-22T02:38:04.642Z,7.50
2023-02-22T02:40:36.238Z,7.50
2023-02-22T02:43:21.286Z,7.60
2023-02-22T02:45:58.832Z,7.70
2023-02-22T02:48:28.346Z,7.70
2023-02-22T02:50:59.303Z,7.70
2023-02-22T02:53:34.220Z,7.80
2023-02-22T02:56:01.100Z,7.80
2023-02-22T02:58:28.363Z,7.90
2023-02-22T03:00:59.016Z,8.00
2023-02-22T03:03:47.742Z,8.10
2023-02-22T03:06:38.273Z,8.10
2023-02-22T03:09:34.533Z,8.20
2023-02-22T03:12:25.852Z,8.20
2023-02-22T03:15:10.047Z,8.30
2023-02-22T03:17:54.208Z,8.20
2023-02-22T03:20:31.628Z,8.20
2023-02-22T03:23:10.027Z,8.20
2023-02-22T03:25:41.817Z,8.10
2023-02-22T03:28:12.190Z,8.00
2023-02-22T03:31:06.187Z,7.90
2023-02-22T03:33:41.165Z,7.70
2023-02-22T03:36:25.033Z,7.60
2023-02-22T03:38:55.707Z,7.60
2023-02-22T03:41:26.647Z,7.60
2023-02-22T03:44:05.447Z,7.60
2023-02-22T03:46:35.409Z,7.60
2023-02-22T03:49:09.810Z,7.60
2023-02-22T03:51:37.157Z,7.40
2023-02-22T03:54:04.568Z,7.30
2023-02-22T03:56:38.149Z,7.40
2023-02-22T03:59:10.182Z,7.50
2023-02-22T04:01:37.500Z,7.40
2023-02-22T04:04:04.867Z,7.40
2023-02-22T04:06:32.059Z,7.40
2023-02-22T04:08:59.241Z,7.50
2023-02-22T04:11:26.108Z,7.50
2023-02-22T04:13:54.855Z,7.50
2023-02-22T04:16:21.701Z,7.40
2023-02-22T04:18:48.521Z,7.40
2023-02-22T04:24:00.627Z,7.40
2023-02-22T04:26:27.793Z,7.50
2023-02-22T04:28:54.651Z,7.50
2023-02-22T04:31:21.645Z,7.50
2023-02-22T04:33:48.599Z,7.60
2023-02-22T04:36:16.263Z,7.60
2023-02-22T04:41:20.044Z,7.50
2023-02-22T04:43:47.268Z,7.50
2023-02-22T04:46:14.368Z,7.40
2023-02-22T04:48:41.193Z,7.40
2023-02-22T04:53:46.952Z,7.30
2023-02-22T04:56:13.909Z,7.30
2023-02-22T04:58:40.848Z,7.30
2023-02-22T05:01:08.239Z,7.30
2023-02-22T05:03:38.410Z,7.20
2023-02-22T05:06:06.238Z,7.00
2023-02-22T05:08:33.455Z,7.00
2023-02-22T05:11:00.419Z,7.00
2023-02-22T05:13:27.303Z,6.90
2023-02-22T05:15:55.042Z,7.00
2023-02-22T05:18:21.882Z,7.00
2023-02-22T05:20:48.710Z,6.90
2023-02-22T05:23:15.971Z,6.80
2023-02-22T05:25:42.761Z,6.70
2023-02-22T05:28:13.524Z,6.80
2023-02-22T05:30:41.210Z,6.80
2023-02-22T05:33:09.394Z,6.80
2023-02-22T05:35:39.456Z,6.80
2023-02-22T05:38:06.579Z,6.80
2023-02-22T05:40:33.520Z,7.00
2023-02-22T05:43:01.352Z,7.00
2023-02-22T05:45:29.051Z,6.90
2023-02-22T05:47:56.261Z,6.80
2023-02-22T05:50:23.148Z,6.80
2023-02-22T05:52:49.972Z,6.90
2023-02-22T05:55:20.215Z,6.80
2023-02-22T05:57:47.430Z,6.80
2023-02-22T06:00:20.715Z,6.70
2023-02-22T06:02:47.492Z,6.70
2023-02-22T06:05:14.861Z,6.80
2023-02-22T06:07:41.678Z,6.90
2023-02-22T06:10:08.929Z,7.00
2023-02-22T06:12:35.763Z,7.00
2023-02-22T06:15:02.835Z,7.00
2023-02-22T06:17:30.488Z,7.10
2023-02-22T06:19:57.984Z,7.20
2023-02-22T06:22:24.813Z,7.20
2023-02-22T06:24:53.475Z,7.30
2023-02-22T06:27:21.795Z,7.40
2023-02-22T06:29:48.573Z,7.40
2023-02-22T06:32:15.525Z,7.40
2023-02-22T06:34:42.692Z,7.50
2023-02-22T06:37:09.961Z,7.60
2023-02-22T06:39:36.888Z,7.80
2023-02-22T06:42:03.878Z,7.70
2023-02-22T06:44:31.580Z,7.80
2023-02-22T06:47:01.693Z,7.80
2023-02-22T06:49:28.687Z,7.90
2023-02-22T06:51:55.504Z,7.90
2023-02-22T06:54:23.007Z,7.90
2023-02-22T06:56:50.438Z,8.10
2023-02-22T06:59:18.079Z,8.20
2023-02-22T07:02:17.808Z,8.20
2023-02-22T07:04:45.887Z,8.30
2023-02-22T07:07:16.431Z,8.20
2023-02-22T07:09:47.294Z,8.30
2023-02-22T07:12:14.637Z,8.30
2023-02-22T07:14:41.530Z,8.30
2023-02-22T07:17:08.389Z,8.40
2023-02-22T07:19:35.342Z,8.50
2023-02-22T07:22:02.164Z,8.70
2023-02-22T07:24:28.945Z,8.80
2023-02-22T07:26:55.918Z,8.90
2023-02-22T07:29:23.141Z,9.10
2023-02-22T07:31:51.155Z,9.20
2023-02-22T07:34:18.067Z,9.30
2023-02-22T07:36:44.918Z,9.40
2023-02-22T07:39:11.798Z,9.60
2023-02-22T07:41:38.598Z,9.70
2023-02-22T07:44:05.921Z,9.80
2023-02-22T07:46:33.958Z,9.80
2023-02-22T07:49:00.805Z,9.90
2023-02-22T07:51:27.665Z,10.10
2023-02-22T07:53:54.549Z,10.20
2023-02-22T07:56:21.386Z,10.30
2023-02-22T07:58:48.284Z,10.50
2023-02-22T08:01:15.677Z,10.60
2023-02-22T08:03:42.783Z,10.60
2023-02-22T08:06:10.026Z,10.60
2023-02-22T08:08:36.879Z,10.60
2023-02-22T08:11:03.914Z,10.60
2023-02-22T08:13:30.832Z,10.70
2023-02-22T08:15:57.721Z,10.70
2023-02-22T08:18:25.827Z,10.70
2023-02-22T08:20:53.604Z,10.70
2023-02-22T08:23:22.650Z,10.80
2023-02-22T08:25:49.832Z,10.90
2023-02-22T08:28:20.044Z,11.10
2023-02-22T08:30:47.376Z,11.30
2023-02-22T08:33:19.310Z,11.40
2023-02-22T08:35:51.705Z,11.50
2023-02-22T08:38:22.848Z,11.60
2023-02-22T08:40:50.972Z,11.90
2023-02-22T08:43:19.473Z,11.90
2023-02-22T08:45:47.475Z,12.20
2023-02-22T08:48:15.600Z,12.50
2023-02-22T08:50:42.639Z,12.80
2023-02-22T08:53:13.622Z,13.00
2023-02-22T08:55:42.034Z,13.30
2023-02-22T08:58:09.989Z,13.50
2023-02-22T09:00:38.858Z,13.80
2023-02-22T09:03:13.234Z,14.00
2023-02-22T09:05:42.023Z,14.20
2023-02-22T09:08:09.033Z,14.40
2023-02-22T09:10:36.219Z,14.70
2023-02-22T09:13:04.245Z,14.90
2023-02-22T09:15:32.319Z,15.00
2023-02-22T09:17:59.699Z,15.20
2023-02-22T09:20:27.063Z,15.50
2023-02-22T09:22:55.182Z,15.60
2023-02-22T09:25:22.740Z,15.90
2023-02-22T09:27:52.574Z,16.20
2023-02-22T09:30:33.364Z,16.50
2023-02-22T09:33:06.307Z,16.80
2023-02-22T09:35:36.208Z,17.40
2023-02-22T09:38:06.362Z,17.80
2023-02-22T09:40:41.051Z,18.10
2023-02-22T09:43:31.988Z,18.20
2023-02-22T09:45:58.888Z,18.40
2023-02-22T09:48:26.545Z,18.60
2023-02-22T09:50:58.560Z,19.00
2023-02-22T09:53:42.392Z,19.40
2023-02-22T09:56:12.786Z,19.80
2023-02-22T09:58:43.081Z,20.00
2023-02-22T10:01:35.873Z,20.20
2023-02-22T10:04:26.121Z,20.60
2023-02-22T10:06:55.804Z,20.80
2023-02-22T10:09:29.385Z,21.20
2023-02-22T10:12:02.886Z,21.70
2023-02-22T10:15:06.339Z,22.10
2023-02-22T10:18:00.513Z,22.50
2023-02-22T10:20:30.285Z,23.10
2023-02-22T10:23:24.277Z,23.50
2023-02-22T10:26:09.293Z,23.60
2023-02-22T10:28:43.927Z,23.80
2023-02-22T10:31:23.259Z,24.30
2023-02-22T10:34:03.273Z,24.90
2023-02-22T10:36:30.320Z,24.70
2023-02-22T10:39:00.408Z,25.00
2023-02-22T10:41:31.840Z,25.70
2023-02-22T10:43:59.238Z,26.30
2023-02-22T10:46:28.583Z,26.70
2023-02-22T10:49:02.618Z,27.00
2023-02-22T10:51:30.626Z,27.40
2023-02-22T10:54:24.222Z,28.10
2023-02-22T10:56:55.550Z,28.60
2023-02-22T10:59:28.544Z,29.30
2023-02-22T11:01:55.683Z,30.10
2023-02-22T11:04:23.289Z,30.40
2023-02-22T11:06:59.076Z,30.00
2023-02-22T11:09:29.003Z,30.70
2023-02-22T11:12:11.449Z,31.10
2023-02-22T11:14:39.149Z,31.90
2023-02-22T11:17:08.632Z,32.90
2023-02-22T11:19:38.478Z,33.80
2023-02-22T11:22:05.709Z,34.20
2023-02-22T11:24:47.466Z,34.80
2023-02-22T11:27:43.914Z,35.10
2023-02-22T11:30:22.745Z,35.00
2023-02-22T11:32:56.489Z,35.30
2023-02-22T11:35:29.299Z,35.70
2023-02-22T11:38:21.307Z,35.90
2023-02-22T11:41:07.970Z,36.50
2023-02-22T11:43:35.426Z,36.70
2023-02-22T11:46:06.032Z,37.20
2023-02-22T11:48:43.525Z,37.40
2023-02-22T11:51:21.934Z,37.20
2023-02-22T11:54:00.846Z,37.50
2023-02-22T11:56:37.814Z,38.00
2023-02-22T11:59:23.710Z,38.40
2023-02-22T12:02:18.527Z,38.70
2023-02-22T12:05:04.049Z,38.80
2023-02-22T12:07:50.541Z,39.20
2023-02-22T12:10:45.911Z,38.90
2023-02-22T12:13:21.879Z,38.60
2023-02-22T12:16:01.455Z,38.30
2023-02-22T12:18:59.869Z,38.50
2023-02-22T12:21:29.864Z,38.70
2023-02-22T12:24:17.164Z,38.90
2023-02-22T12:26:53.619Z,38.70
2023-02-22T12:29:39.696Z,38.60
2023-02-22T12:32:18.450Z,38.40
2023-02-22T12:34:48.771Z,38.40
2023-02-22T12:37:27.562Z,38.80
2023-02-22T12:40:23.811Z,39.10
2023-02-22T12:42:59.916Z,39.30
2023-02-22T12:45:38.550Z,39.30
2023-02-22T12:48:21.646Z,39.40
2023-02-22T12:50:56.231Z,39.80
2023-02-22T12:53:34.761Z,39.90
2023-02-22T12:56:25.772Z,39.80
2023-02-22T12:59:49.045Z,39.70
2023-02-22T13:02:31.310Z,39.60
2023-02-22T13:04:58.363Z,39.30
2023-02-22T13:07:46.999Z,39.30
2023-02-22T13:10:44.252Z,39.20
2023-02-22T13:13:20.007Z,38.90
2023-02-22T13:15:55.375Z,39.00
2023-02-22T13:18:48.049Z,39.00
2023-02-22T13:21:47.799Z,38.80
2023-02-22T13:24:42.198Z,38.80
2023-02-22T13:27:21.429Z,38.40
2023-02-22T13:29:52.113Z,37.60
2023-02-22T13:32:52.312Z,37.00
2023-02-22T13:35:38.734Z,36.10
2023-02-22T13:38:28.491Z,35.90
2023-02-22T13:41:01.397Z,36.00
2023-02-22T13:43:46.080Z,36.00
2023-02-22T13:46:51.476Z,35.80
2023-02-22T13:49:44.031Z,35.70
2023-02-22T13:52:23.737Z,35.90
2023-02-22T13:54:55.859Z,36.90
2023-02-22T13:57:31.319Z,37.00
2023-02-22T14:00:17.162Z,37.80
2023-02-22T14:03:01.606Z,37.30
2023-02-22T14:05:46.481Z,36.00
2023-02-22T14:08:19.995Z,35.30
2023-02-22T14:10:58.221Z,34.00
2023-02-22T14:13:30.363Z,32.60
2023-02-22T14:16:00.872Z,31.30
2023-02-22T14:18:35.993Z,31.20
2023-02-22T14:21:08.599Z,31.90
2023-02-22T14:23:50.463Z,33.00
2023-02-22T14:26:26.440Z,33.70
2023-02-22T14:29:08.622Z,34.30
2023-02-22T14:32:01.185Z,35.10
2023-02-22T14:34:42.321Z,35.30
2023-02-22T14:37:18.107Z,35.40
2023-02-22T14:39:58.476Z,35.20
2023-02-22T14:42:30.357Z,35.00
2023-02-22T14:45:17.193Z,35.10
2023-02-22T14:48:03.833Z,35.40
2023-02-22T14:50:46.001Z,35.50
2023-02-22T14:53:13.221Z,35.10
2023-02-22T14:56:04.396Z,35.00
2023-02-22T14:58:45.244Z,34.80
2023-02-22T15:01:44.266Z,35.00
2023-02-22T15:04:25.650Z,34.90
2023-02-22T15:06:54.530Z,34.60
2023-02-22T15:09:30.089Z,34.40
2023-02-22T15:12:03.543Z,34.10
2023-02-22T15:14:39.025Z,34.00
2023-02-22T15:17:21.619Z,33.50
2023-02-22T15:19:49.691Z,32.70
2023-02-22T15:22:27.192Z,32.10
2023-02-22T15:25:07.587Z,31.30
2023-02-22T15:27:37.245Z,30.20
2023-02-22T15:30:27.012Z,29.30
2023-02-22T15:33:04.109Z,28.50
2023-02-22T15:35:33.473Z,28.20
2023-02-22T15:38:03.250Z,28.00
2023-02-22T15:40:33.353Z,27.90
2023-02-22T15:43:02.581Z,27.30
2023-02-22T15:45:32.406Z,26.90
2023-02-22T15:47:59.844Z,26.30
2023-02-22T15:50:30.596Z,25.80
2023-02-22T15:53:23.138Z,25.40
2023-02-22T15:55:57.816Z,24.90
2023-02-22T15:58:28.986Z,24.60
2023-02-22T16:01:21.922Z,24.20
2023-02-22T16:03:58.348Z,23.70
2023-02-22T16:06:40.824Z,23.30
2023-02-22T16:09:13.571Z,23.10
2023-02-22T16:11:46.022Z,22.80
2023-02-22T16:14:36.035Z,22.60
2023-02-22T16:17:25.449Z,22.00
2023-02-22T16:19:53.354Z,21.70
2023-02-22T16:22:35.888Z,21.20
2023-02-22T16:25:18.128Z,20.80
2023-02-22T16:27:49.047Z,20.50
2023-02-22T16:30:24.684Z,20.00
2023-02-22T16:32:54.599Z,19.70
2023-02-22T16:35:21.966Z,19.50
2023-02-22T16:37:56.102Z,19.20
2023-02-22T16:40:44.650Z,19.10
2023-02-22T16:43:17.448Z,18.80
2023-02-22T16:45:44.334Z,18.60
2023-02-22T16:48:23.603Z,18.40
2023-02-22T16:50:52.390Z,18.20
2023-02-22T16:53:25.319Z,18.00
2023-02-22T16:55:57.975Z,17.80
2023-02-22T16:58:29.366Z,17.60
2023-02-22T17:00:57.603Z,17.50
2023-02-22T17:03:35.996Z,17.40
2023-02-22T17:06:03.265Z,17.30
2023-02-22T17:08:31.100Z,17.20
2023-02-22T17:10:59.784Z,17.20
2023-02-22T17:13:27.981Z,17.10
2023-02-22T17:15:55.478Z,17.00
2023-02-22T17:18:25.206Z,16.90
2023-02-22T17:20:53.004Z,16.80
2023-02-22T17:23:20.754Z,16.60
2023-02-22T17:26:04.538Z,16.50
2023-02-22T17:28:31.963Z,16.50
2023-02-22T17:31:01.706Z,16.40
2023-02-22T17:33:34.810Z,16.30
2023-02-22T17:36:03.894Z,16.20
2023-02-22T17:38:31.483Z,16.10
2023-02-22T17:41:00.615Z,16.00
2023-02-22T17:43:28.660Z,15.80
2023-02-22T17:45:56.573Z,15.80
2023-02-22T17:48:24.416Z,15.70
2023-02-22T17:50:52.246Z,15.60
2023-02-22T17:53:22.711Z,15.50
2023-02-22T17:55:50.210Z,15.40
2023-02-22T17:58:17.786Z,15.30
2023-02-22T18:00:48.766Z,15.30
2023-02-22T18:03:25.333Z,15.10
2023-02-22T18:05:56.324Z,15.10
2023-02-22T18:08:24.988Z,15.00
2023-02-22T18:10:58.273Z,15.00
2023-02-22T18:13:27.597Z,14.90
2023-02-22T18:16:00.033Z,14.80
2023-02-22T18:18:28.584Z,14.80
2023-02-22T18:20:59.567Z,14.70
2023-02-22T18:23:28.866Z,14.60
2023-02-22T18:26:09.708Z,14.70
2023-02-22T18:28:38.285Z,14.60
2023-02-22T18:31:10.592Z,14.50
2023-02-22T18:33:37.451Z,14.30
2023-02-22T18:36:04.757Z,14.20
2023-02-22T18:38:32.035Z,14.20
2023-02-22T18:41:01.064Z,14.10
2023-02-22T18:43:28.669Z,14.10
2023-02-22T18:46:04.279Z,14.00
2023-02-22T18:48:31.125Z,13.90
2023-02-22T18:51:05.569Z,13.90
2023-02-22T18:53:32.767Z,13.80
2023-02-22T18:56:08.599Z,13.80
2023-02-22T18:58:36.201Z,13.80
2023-02-22T19:01:03.917Z,13.80
2023-02-22T19:03:32.624Z,13.70
2023-02-22T19:06:03.472Z,13.70
2023-02-22T19:08:32.556Z,13.70
2023-02-22T19:11:04.104Z,13.70
2023-02-22T19:13:32.104Z,13.60
2023-02-22T19:16:03.037Z,13.60
2023-02-22T19:18:30.732Z,13.50
2023-02-22T19:21:02.786Z,13.50
2023-02-22T19:23:34.376Z,13.40
2023-02-22T19:26:03.135Z,13.30
2023-02-22T19:28:34.214Z,13.20
2023-02-22T19:31:19.533Z,13.20
2023-02-22T19:33:48.392Z,13.10
2023-02-22T19:36:16.388Z,12.90
2023-02-22T19:38:44.267Z,12.80
2023-02-22T19:41:18.325Z,12.80
2023-02-22T19:43:48.954Z,12.70
2023-02-22T19:46:17.893Z,12.70
2023-02-22T19:48:48.570Z,12.60
2023-02-22T19:51:17.547Z,12.50
2023-02-22T19:53:45.199Z,12.50
2023-02-22T19:56:16.851Z,12.50
2023-02-22T19:58:49.886Z,12.40
2023-02-22T20:01:25.975Z,12.30
2023-02-22T20:04:05.078Z,12.30
2023-02-22T20:06:42.889Z,12.30
2023-02-22T20:09:13.872Z,12.30
2023-02-22T20:11:40.729Z,12.30
2023-02-22T20:14:09.918Z,12.20
2023-02-22T20:16:36.722Z,12.10
2023-02-22T20:19:04.474Z,12.10
2023-02-22T20:21:39.377Z,12.10
2023-02-22T20:24:08.547Z,12.10
2023-02-22T20:26:37.598Z,12.00
2023-02-22T20:29:05.812Z,12.10
2023-02-22T20:31:33.617Z,12.10
2023-02-22T20:34:01.515Z,12.00
2023-02-22T20:36:30.165Z,12.00
2023-02-22T20:38:59.163Z,12.00
2023-02-22T20:41:30.519Z,11.80
2023-02-22T20:43:57.892Z,11.80
2023-02-22T20:46:27.370Z,11.80
2023-02-22T20:48:55.740Z,11.80
2023-02-22T20:51:23.506Z,11.80
2023-02-22T20:53:50.867Z,11.70
2023-02-22T20:56:23.267Z,11.70
2023-02-22T20:58:50.489Z,11.70
2023-02-22T21:01:22.471Z,11.60
2023-02-22T21:03:49.989Z,11.60
2023-02-22T21:06:21.278Z,11.60
2023-02-22T21:08:54.317Z,11.60
2023-02-22T21:11:23.553Z,11.50
2023-02-22T21:13:51.594Z,11.40
2023-02-22T21:16:33.426Z,11.30
2023-02-22T21:19:02.638Z,11.20
2023-02-22T21:21:30.914Z,11.20
2023-02-22T21:24:01.763Z,11.20
2023-02-22T21:26:31.551Z,11.20
2023-02-22T21:29:01.057Z,11.10
2023-02-22T21:31:28.578Z,11.10
2023-02-22T21:33:57.724Z,11.00
2023-02-22T21:36:25.587Z,11.00
2023-02-22T21:38:58.850Z,11.00
2023-02-22T21:41:28.956Z,10.90
2023-02-22T21:43:58.241Z,10.90
2023-02-22T21:46:26.987Z,10.90
2023-02-22T21:48:53.991Z,10.80
2023-02-22T21:51:22.150Z,10.70
2023-02-22T21:53:52.440Z,10.70
2023-02-22T21:56:27.627Z,10.70
2023-02-22T21:59:05.023Z,10.70
2023-02-22T22:01:37.019Z,10.80
2023-02-22T22:04:04.891Z,10.60
2023-02-22T22:06:34.521Z,10.60
2023-02-22T22:09:01.511Z,10.50
2023-02-22T22:11:30.675Z,10.50
2023-02-22T22:13:59.791Z,10.40
2023-02-22T22:16:29.796Z,10.30
2023-02-22T22:18:57.001Z,10.30
2023-02-22T22:21:25.116Z,10.20
2023-02-22T22:23:57.378Z,10.30
2023-02-22T22:26:25.855Z,10.30
2023-02-22T22:28:56.184Z,10.30
2023-02-22T22:31:25.897Z,10.20
2023-02-22T22:33:54.559Z,10.30
2023-02-22T22:36:23.207Z,10.30
2023-02-22T22:38:52.622Z,10.30
2023-02-22T22:41:21.918Z,10.30
2023-02-22T22:43:48.822Z,10.30
2023-02-22T22:46:17.745Z,10.20
2023-02-22T22:48:47.204Z,10.20
2023-02-22T22:51:19.812Z,10.20
2023-02-22T22:53:48.873Z,10.20
2023-02-22T22:58:54.089Z,10.10
2023-02-22T23:01:27.840Z,10.10
2023-02-22T23:04:01.332Z,10.00
2023-02-22T23:06:40.756Z,10.00
2023-02-22T23:09:15.185Z,9.90
2023-02-22T23:11:47.094Z,9.90
2023-02-22T23:14:18.983Z,9.90
2023-02-22T23:16:47.669Z,9.80
2023-02-22T23:21:50.496Z,9.50
2023-02-22T23:24:20.717Z,9.50
2023-02-22T23:26:51.585Z,9.50
2023-02-22T23:29:21.277Z,9.40
2023-02-22T23:31:49.681Z,9.40
2023-02-22T23:34:21.524Z,9.40
2023-02-22T23:56:56.215Z,9.10
2023-02-22T23:59:24.961Z,9.10
